sensor_id;sensor_type;location;lat;lon;timestamp;temperature;humidity
33803;DHT22;20110;53.120;5.786;2023-04-25T00:01:40;4.30;99.90
33803;DHT22;20110;53.120;5.786;2023-04-25T00:04:06;4.20;99.90
33803;DHT22;20110;53.120;5.786;2023-04-25T00:06:34;4.30;99.90
33803;DHT22;20110;53.120;5.786;2023-04-25T00:09:02;4.30;99.90
33803;DHT22;20110;53.120;5.786;2023-04-25T00:11:29;4.40;99.90
33803;DHT22;20110;53.120;5.786;2023-04-25T00:13:56;4.20;99.90
33803;DHT22;20110;53.120;5.786;2023-04-25T00:16:22;4.20;99.90
33803;DHT22;20110;53.120;5.786;2023-04-25T00:18:49;4.10;99.90
33803;DHT22;20110;53.120;5.786;2023-04-25T00:21:18;4.20;99.90
33803;DHT22;20110;53.120;5.786;2023-04-25T00:23:45;4.30;99.90
33803;DHT22;20110;53.120;5.786;2023-04-25T00:26:11;4.30;99.90
33803;DHT22;20110;53.120;5.786;2023-04-25T00:28:38;4.60;99.90
33803;DHT22;20110;53.120;5.786;2023-04-25T00:31:04;4.70;99.90
33803;DHT22;20110;53.120;5.786;2023-04-25T00:33:30;4.80;99.90
33803;DHT22;20110;53.120;5.786;2023-04-25T00:35:56;4.80;99.90
33803;DHT22;20110;53.120;5.786;2023-04-25T00:38:22;4.60;99.90
33803;DHT22;20110;53.120;5.786;2023-04-25T00:40:48;4.50;99.90
33803;DHT22;20110;53.120;5.786;2023-04-25T00:43:14;4.40;99.90
33803;DHT22;20110;53.120;5.786;2023-04-25T00:45:40;4.10;99.90
33803;DHT22;20110;53.120;5.786;2023-04-25T00:48:06;4.30;99.90
33803;DHT22;20110;53.120;5.786;2023-04-25T00:50:36;4.40;99.90
33803;DHT22;20110;53.120;5.786;2023-04-25T00:53:04;4.50;99.90
33803;DHT22;20110;53.120;5.786;2023-04-25T00:55:30;4.60;99.90
33803;DHT22;20110;53.120;5.786;2023-04-25T00:57:58;4.40;99.90
33803;DHT22;20110;53.120;5.786;2023-04-25T01:00:24;4.20;99.90
33803;DHT22;20110;53.120;5.786;2023-04-25T01:02:50;4.30;99.90
33803;DHT22;20110;53.120;5.786;2023-04-25T01:05:15;4.20;99.90
33803;DHT22;20110;53.120;5.786;2023-04-25T01:07:42;4.00;99.90
33803;DHT22;20110;53.120;5.786;2023-04-25T01:10:09;4.00;99.90
33803;DHT22;20110;53.120;5.786;2023-04-25T01:12:35;4.10;99.90
33803;DHT22;20110;53.120;5.786;2023-04-25T01:15:01;4.10;99.90
33803;DHT22;20110;53.120;5.786;2023-04-25T01:17:27;4.10;99.90
33803;DHT22;20110;53.120;5.786;2023-04-25T01:19:54;4.20;99.90
33803;DHT22;20110;53.120;5.786;2023-04-25T01:22:20;4.00;99.90
33803;DHT22;20110;53.120;5.786;2023-04-25T01:24:46;3.90;99.90
33803;DHT22;20110;53.120;5.786;2023-04-25T01:27:12;3.90;99.90
33803;DHT22;20110;53.120;5.786;2023-04-25T01:29:39;4.00;99.90
33803;DHT22;20110;53.120;5.786;2023-04-25T01:32:05;4.10;99.90
33803;DHT22;20110;53.120;5.786;2023-04-25T01:34:31;4.20;99.90
33803;DHT22;20110;53.120;5.786;2023-04-25T01:36:59;4.40;99.90
33803;DHT22;20110;53.120;5.786;2023-04-25T01:39:27;4.50;99.90
33803;DHT22;20110;53.120;5.786;2023-04-25T01:41:53;4.50;99.90
33803;DHT22;20110;53.120;5.786;2023-04-25T01:44:19;4.40;99.90
33803;DHT22;20110;53.120;5.786;2023-04-25T01:46:45;4.30;99.90
33803;DHT22;20110;53.120;5.786;2023-04-25T01:49:11;4.20;99.90
33803;DHT22;20110;53.120;5.786;2023-04-25T01:51:37;4.20;99.90
33803;DHT22;20110;53.120;5.786;2023-04-25T01:54:03;4.20;99.90
33803;DHT22;20110;53.120;5.786;2023-04-25T01:56:33;4.10;99.90
33803;DHT22;20110;53.120;5.786;2023-04-25T01:59:04;4.10;99.90
33803;DHT22;20110;53.120;5.786;2023-04-25T02:01:30;4.20;99.90
33803;DHT22;20110;53.120;5.786;2023-04-25T02:03:57;4.20;99.90
33803;DHT22;20110;53.120;5.786;2023-04-25T02:06:22;4.20;99.90
33803;DHT22;20110;53.120;5.786;2023-04-25T02:08:48;4.10;99.90
33803;DHT22;20110;53.120;5.786;2023-04-25T02:11:14;4.10;99.90
33803;DHT22;20110;53.120;5.786;2023-04-25T02:13:40;3.90;99.90
33803;DHT22;20110;53.120;5.786;2023-04-25T02:16:06;3.90;99.90
33803;DHT22;20110;53.120;5.786;2023-04-25T02:18:32;3.80;99.90
33803;DHT22;20110;53.120;5.786;2023-04-25T02:20:59;3.70;99.90
33803;DHT22;20110;53.120;5.786;2023-04-25T02:23:26;3.60;99.90
33803;DHT22;20110;53.120;5.786;2023-04-25T02:25:52;3.60;99.90
33803;DHT22;20110;53.120;5.786;2023-04-25T02:28:20;3.70;99.90
33803;DHT22;20110;53.120;5.786;2023-04-25T02:30:46;3.70;99.90
33803;DHT22;20110;53.120;5.786;2023-04-25T02:33:12;3.80;99.90
33803;DHT22;20110;53.120;5.786;2023-04-25T02:35:38;3.70;99.90
33803;DHT22;20110;53.120;5.786;2023-04-25T02:38:03;3.70;99.90
33803;DHT22;20110;53.120;5.786;2023-04-25T02:40:30;3.70;99.90
33803;DHT22;20110;53.120;5.786;2023-04-25T02:42:55;3.70;99.90
33803;DHT22;20110;53.120;5.786;2023-04-25T02:45:21;3.60;99.90
33803;DHT22;20110;53.120;5.786;2023-04-25T02:47:47;3.60;99.90
33803;DHT22;20110;53.120;5.786;2023-04-25T02:50:13;3.50;99.90
33803;DHT22;20110;53.120;5.786;2023-04-25T02:52:38;3.50;99.90
33803;DHT22;20110;53.120;5.786;2023-04-25T02:55:05;3.50;99.90
33803;DHT22;20110;53.120;5.786;2023-04-25T02:57:31;3.50;99.90
33803;DHT22;20110;53.120;5.786;2023-04-25T02:59:57;3.60;99.90
33803;DHT22;20110;53.120;5.786;2023-04-25T03:02:23;3.50;99.90
33803;DHT22;20110;53.120;5.786;2023-04-25T03:04:48;3.60;99.90
33803;DHT22;20110;53.120;5.786;2023-04-25T03:07:14;3.50;99.90
33803;DHT22;20110;53.120;5.786;2023-04-25T03:09:40;3.50;99.90
33803;DHT22;20110;53.120;5.786;2023-04-25T03:12:06;3.50;99.90
33803;DHT22;20110;53.120;5.786;2023-04-25T03:14:32;3.60;99.90
33803;DHT22;20110;53.120;5.786;2023-04-25T03:16:58;3.60;99.90
33803;DHT22;20110;53.120;5.786;2023-04-25T03:19:24;3.70;99.90
33803;DHT22;20110;53.120;5.786;2023-04-25T03:21:50;3.80;99.90
33803;DHT22;20110;53.120;5.786;2023-04-25T03:24:16;3.90;99.90
33803;DHT22;20110;53.120;5.786;2023-04-25T03:26:42;3.90;99.90
33803;DHT22;20110;53.120;5.786;2023-04-25T03:29:08;3.70;99.90
33803;DHT22;20110;53.120;5.786;2023-04-25T03:31:34;3.60;99.90
33803;DHT22;20110;53.120;5.786;2023-04-25T03:33:59;3.60;99.90
33803;DHT22;20110;53.120;5.786;2023-04-25T03:36:25;3.60;99.90
33803;DHT22;20110;53.120;5.786;2023-04-25T03:38:51;3.70;99.90
33803;DHT22;20110;53.120;5.786;2023-04-25T03:41:17;3.70;99.90
33803;DHT22;20110;53.120;5.786;2023-04-25T03:43:42;3.80;99.90
33803;DHT22;20110;53.120;5.786;2023-04-25T03:46:08;3.90;99.90
33803;DHT22;20110;53.120;5.786;2023-04-25T03:48:34;3.90;99.90
33803;DHT22;20110;53.120;5.786;2023-04-25T03:51:00;3.90;99.90
33803;DHT22;20110;53.120;5.786;2023-04-25T03:53:26;3.90;99.90
33803;DHT22;20110;53.120;5.786;2023-04-25T03:55:51;3.90;99.90
33803;DHT22;20110;53.120;5.786;2023-04-25T03:58:17;3.80;99.90
33803;DHT22;20110;53.120;5.786;2023-04-25T04:00:43;3.80;99.90
33803;DHT22;20110;53.120;5.786;2023-04-25T04:03:09;3.70;99.90
33803;DHT22;20110;53.120;5.786;2023-04-25T04:05:36;3.60;99.90
33803;DHT22;20110;53.120;5.786;2023-04-25T04:08:02;3.50;99.90
33803;DHT22;20110;53.120;5.786;2023-04-25T04:10:28;3.40;99.90
33803;DHT22;20110;53.120;5.786;2023-04-25T04:12:54;3.30;99.90
33803;DHT22;20110;53.120;5.786;2023-04-25T04:15:20;3.20;99.90
33803;DHT22;20110;53.120;5.786;2023-04-25T04:17:47;3.20;99.90
33803;DHT22;20110;53.120;5.786;2023-04-25T04:20:13;3.10;99.90
33803;DHT22;20110;53.120;5.786;2023-04-25T04:22:39;3.10;99.90
33803;DHT22;20110;53.120;5.786;2023-04-25T04:25:05;3.20;99.90
33803;DHT22;20110;53.120;5.786;2023-04-25T04:27:32;3.20;99.90
33803;DHT22;20110;53.120;5.786;2023-04-25T04:29:58;3.30;99.90
33803;DHT22;20110;53.120;5.786;2023-04-25T04:32:24;3.40;99.90
33803;DHT22;20110;53.120;5.786;2023-04-25T04:34:50;3.60;99.90
33803;DHT22;20110;53.120;5.786;2023-04-25T04:37:17;3.60;99.90
33803;DHT22;20110;53.120;5.786;2023-04-25T04:39:43;3.80;99.90
33803;DHT22;20110;53.120;5.786;2023-04-25T04:42:09;3.80;99.90
33803;DHT22;20110;53.120;5.786;2023-04-25T04:44:36;3.70;99.90
33803;DHT22;20110;53.120;5.786;2023-04-25T04:47:04;3.70;99.90
33803;DHT22;20110;53.120;5.786;2023-04-25T04:49:32;3.70;99.90
33803;DHT22;20110;53.120;5.786;2023-04-25T04:51:59;3.80;99.90
33803;DHT22;20110;53.120;5.786;2023-04-25T04:54:26;3.70;99.90
33803;DHT22;20110;53.120;5.786;2023-04-25T04:56:52;3.70;99.90
33803;DHT22;20110;53.120;5.786;2023-04-25T04:59:18;3.80;99.90
33803;DHT22;20110;53.120;5.786;2023-04-25T05:01:44;3.80;99.90
33803;DHT22;20110;53.120;5.786;2023-04-25T05:04:11;3.80;99.90
33803;DHT22;20110;53.120;5.786;2023-04-25T05:06:37;3.90;99.90
33803;DHT22;20110;53.120;5.786;2023-04-25T05:09:02;3.90;99.90
33803;DHT22;20110;53.120;5.786;2023-04-25T05:11:29;3.90;99.90
33803;DHT22;20110;53.120;5.786;2023-04-25T05:13:55;4.00;99.90
33803;DHT22;20110;53.120;5.786;2023-04-25T05:16:21;4.00;99.90
33803;DHT22;20110;53.120;5.786;2023-04-25T05:18:47;4.00;99.90
33803;DHT22;20110;53.120;5.786;2023-04-25T05:21:13;3.90;99.90
33803;DHT22;20110;53.120;5.786;2023-04-25T05:23:39;3.80;99.90
33803;DHT22;20110;53.120;5.786;2023-04-25T05:26:04;3.70;99.90
33803;DHT22;20110;53.120;5.786;2023-04-25T05:28:31;3.70;99.90
33803;DHT22;20110;53.120;5.786;2023-04-25T05:30:57;3.60;99.90
33803;DHT22;20110;53.120;5.786;2023-04-25T05:33:23;3.60;99.90
33803;DHT22;20110;53.120;5.786;2023-04-25T05:35:48;3.70;99.90
33803;DHT22;20110;53.120;5.786;2023-04-25T05:38:15;3.70;99.90
33803;DHT22;20110;53.120;5.786;2023-04-25T05:40:42;3.80;99.90
33803;DHT22;20110;53.120;5.786;2023-04-25T05:43:08;3.90;99.90
33803;DHT22;20110;53.120;5.786;2023-04-25T05:45:34;3.90;99.90
33803;DHT22;20110;53.120;5.786;2023-04-25T05:48:00;4.00;99.90
33803;DHT22;20110;53.120;5.786;2023-04-25T05:50:25;3.90;99.90
33803;DHT22;20110;53.120;5.786;2023-04-25T05:52:52;4.00;99.90
33803;DHT22;20110;53.120;5.786;2023-04-25T05:55:19;4.20;99.90
33803;DHT22;20110;53.120;5.786;2023-04-25T05:57:45;4.30;99.90
33803;DHT22;20110;53.120;5.786;2023-04-25T06:00:13;4.30;99.90
33803;DHT22;20110;53.120;5.786;2023-04-25T06:02:41;4.20;99.90
33803;DHT22;20110;53.120;5.786;2023-04-25T06:05:08;4.30;99.90
33803;DHT22;20110;53.120;5.786;2023-04-25T06:07:34;4.30;99.90
33803;DHT22;20110;53.120;5.786;2023-04-25T06:10:00;4.20;99.90
33803;DHT22;20110;53.120;5.786;2023-04-25T06:12:26;4.00;99.90
33803;DHT22;20110;53.120;5.786;2023-04-25T06:14:52;3.90;99.90
33803;DHT22;20110;53.120;5.786;2023-04-25T06:17:18;3.80;99.90
33803;DHT22;20110;53.120;5.786;2023-04-25T06:19:43;3.80;99.90
33803;DHT22;20110;53.120;5.786;2023-04-25T06:22:10;3.90;99.90
33803;DHT22;20110;53.120;5.786;2023-04-25T06:24:35;4.00;99.90
33803;DHT22;20110;53.120;5.786;2023-04-25T06:27:01;4.20;99.90
33803;DHT22;20110;53.120;5.786;2023-04-25T06:29:28;4.30;99.90
33803;DHT22;20110;53.120;5.786;2023-04-25T06:31:53;4.40;99.90
33803;DHT22;20110;53.120;5.786;2023-04-25T06:34:19;4.60;99.90
33803;DHT22;20110;53.120;5.786;2023-04-25T06:36:45;4.80;99.90
33803;DHT22;20110;53.120;5.786;2023-04-25T06:39:13;4.90;99.90
33803;DHT22;20110;53.120;5.786;2023-04-25T06:41:38;4.90;99.90
33803;DHT22;20110;53.120;5.786;2023-04-25T06:44:04;5.10;99.90
33803;DHT22;20110;53.120;5.786;2023-04-25T06:46:30;5.20;99.90
33803;DHT22;20110;53.120;5.786;2023-04-25T06:48:56;5.40;99.90
33803;DHT22;20110;53.120;5.786;2023-04-25T06:51:21;5.50;99.90
33803;DHT22;20110;53.120;5.786;2023-04-25T06:53:47;5.60;99.90
33803;DHT22;20110;53.120;5.786;2023-04-25T06:56:13;5.60;99.90
33803;DHT22;20110;53.120;5.786;2023-04-25T06:58:39;5.20;99.90
33803;DHT22;20110;53.120;5.786;2023-04-25T07:01:05;5.00;99.90
33803;DHT22;20110;53.120;5.786;2023-04-25T07:03:31;4.80;99.90
33803;DHT22;20110;53.120;5.786;2023-04-25T07:05:56;4.80;99.90
33803;DHT22;20110;53.120;5.786;2023-04-25T07:08:22;4.80;99.90
33803;DHT22;20110;53.120;5.786;2023-04-25T07:10:48;4.50;99.90
33803;DHT22;20110;53.120;5.786;2023-04-25T07:13:14;4.70;99.90
33803;DHT22;20110;53.120;5.786;2023-04-25T07:15:39;4.50;99.90
33803;DHT22;20110;53.120;5.786;2023-04-25T07:18:06;4.50;99.90
33803;DHT22;20110;53.120;5.786;2023-04-25T07:20:31;4.50;99.90
33803;DHT22;20110;53.120;5.786;2023-04-25T07:22:58;4.60;99.90
33803;DHT22;20110;53.120;5.786;2023-04-25T07:25:25;4.80;99.90
33803;DHT22;20110;53.120;5.786;2023-04-25T07:27:51;4.70;99.90
33803;DHT22;20110;53.120;5.786;2023-04-25T07:30:17;4.80;99.90
33803;DHT22;20110;53.120;5.786;2023-04-25T07:32:43;4.90;99.90
33803;DHT22;20110;53.120;5.786;2023-04-25T07:35:10;4.90;99.90
33803;DHT22;20110;53.120;5.786;2023-04-25T07:37:36;5.10;99.90
33803;DHT22;20110;53.120;5.786;2023-04-25T07:40:05;5.20;99.90
33803;DHT22;20110;53.120;5.786;2023-04-25T07:42:33;5.50;99.90
33803;DHT22;20110;53.120;5.786;2023-04-25T07:44:59;5.90;99.90
33803;DHT22;20110;53.120;5.786;2023-04-25T07:47:26;6.10;99.90
33803;DHT22;20110;53.120;5.786;2023-04-25T07:49:52;6.10;99.90
33803;DHT22;20110;53.120;5.786;2023-04-25T07:52:18;5.30;99.90
33803;DHT22;20110;53.120;5.786;2023-04-25T07:54:44;5.00;99.90
33803;DHT22;20110;53.120;5.786;2023-04-25T07:57:10;4.60;99.90
33803;DHT22;20110;53.120;5.786;2023-04-25T07:59:36;4.70;99.90
33803;DHT22;20110;53.120;5.786;2023-04-25T08:02:02;4.90;99.90
33803;DHT22;20110;53.120;5.786;2023-04-25T08:04:28;5.20;99.90
33803;DHT22;20110;53.120;5.786;2023-04-25T08:06:54;5.20;99.90
33803;DHT22;20110;53.120;5.786;2023-04-25T08:09:20;5.40;99.90
33803;DHT22;20110;53.120;5.786;2023-04-25T08:11:48;5.80;99.90
33803;DHT22;20110;53.120;5.786;2023-04-25T08:14:14;5.90;99.90
33803;DHT22;20110;53.120;5.786;2023-04-25T08:16:39;5.60;99.90
33803;DHT22;20110;53.120;5.786;2023-04-25T08:19:05;5.80;99.90
33803;DHT22;20110;53.120;5.786;2023-04-25T08:21:32;6.10;99.90
33803;DHT22;20110;53.120;5.786;2023-04-25T08:23:58;6.30;99.90
33803;DHT22;20110;53.120;5.786;2023-04-25T08:26:26;6.60;99.90
33803;DHT22;20110;53.120;5.786;2023-04-25T08:28:51;6.90;99.90
33803;DHT22;20110;53.120;5.786;2023-04-25T08:31:17;7.00;99.40
33803;DHT22;20110;53.120;5.786;2023-04-25T08:33:44;7.10;97.80
33803;DHT22;20110;53.120;5.786;2023-04-25T08:36:10;7.50;98.10
33803;DHT22;20110;53.120;5.786;2023-04-25T08:38:36;7.90;98.10
33803;DHT22;20110;53.120;5.786;2023-04-25T08:41:02;7.80;95.80
33803;DHT22;20110;53.120;5.786;2023-04-25T08:43:29;7.20;94.50
33803;DHT22;20110;53.120;5.786;2023-04-25T08:45:59;7.00;95.30
33803;DHT22;20110;53.120;5.786;2023-04-25T08:48:32;7.00;96.00
33803;DHT22;20110;53.120;5.786;2023-04-25T08:51:01;7.30;96.60
33803;DHT22;20110;53.120;5.786;2023-04-25T08:53:33;7.60;98.60
33803;DHT22;20110;53.120;5.786;2023-04-25T08:56:00;7.20;98.00
33803;DHT22;20110;53.120;5.786;2023-04-25T08:58:28;6.70;99.90
33803;DHT22;20110;53.120;5.786;2023-04-25T09:00:54;6.60;99.90
33803;DHT22;20110;53.120;5.786;2023-04-25T09:03:20;6.70;97.70
33803;DHT22;20110;53.120;5.786;2023-04-25T09:05:46;6.90;95.60
33803;DHT22;20110;53.120;5.786;2023-04-25T09:08:13;7.20;95.10
33803;DHT22;20110;53.120;5.786;2023-04-25T09:10:40;7.40;93.80
33803;DHT22;20110;53.120;5.786;2023-04-25T09:13:24;7.60;90.80
33803;DHT22;20110;53.120;5.786;2023-04-25T09:15:56;7.80;90.40
33803;DHT22;20110;53.120;5.786;2023-04-25T09:18:30;7.60;93.80
33803;DHT22;20110;53.120;5.786;2023-04-25T09:21:11;7.10;95.40
33803;DHT22;20110;53.120;5.786;2023-04-25T09:23:46;6.50;97.40
33803;DHT22;20110;53.120;5.786;2023-04-25T09:26:14;6.20;99.90
33803;DHT22;20110;53.120;5.786;2023-04-25T09:28:42;5.70;99.90
33803;DHT22;20110;53.120;5.786;2023-04-25T09:31:10;5.40;99.90
33803;DHT22;20110;53.120;5.786;2023-04-25T09:33:37;5.40;99.90
33803;DHT22;20110;53.120;5.786;2023-04-25T09:36:08;5.20;99.90
33803;DHT22;20110;53.120;5.786;2023-04-25T09:38:44;5.30;99.90
33803;DHT22;20110;53.120;5.786;2023-04-25T09:41:12;5.60;99.90
33803;DHT22;20110;53.120;5.786;2023-04-25T09:43:38;5.60;99.90
33803;DHT22;20110;53.120;5.786;2023-04-25T09:46:09;6.00;99.90
33803;DHT22;20110;53.120;5.786;2023-04-25T09:48:36;6.20;99.90
33803;DHT22;20110;53.120;5.786;2023-04-25T09:51:13;6.60;99.30
33803;DHT22;20110;53.120;5.786;2023-04-25T09:53:40;6.80;96.90
33803;DHT22;20110;53.120;5.786;2023-04-25T09:56:10;7.20;94.50
33803;DHT22;20110;53.120;5.786;2023-04-25T09:58:39;7.40;93.30
33803;DHT22;20110;53.120;5.786;2023-04-25T10:01:07;7.90;94.30
33803;DHT22;20110;53.120;5.786;2023-04-25T10:03:36;8.20;92.50
33803;DHT22;20110;53.120;5.786;2023-04-25T10:06:09;8.50;92.50
33803;DHT22;20110;53.120;5.786;2023-04-25T10:08:40;8.10;90.80
33803;DHT22;20110;53.120;5.786;2023-04-25T10:11:08;8.40;91.00
33803;DHT22;20110;53.120;5.786;2023-04-25T10:13:35;8.80;90.20
33803;DHT22;20110;53.120;5.786;2023-04-25T10:16:03;8.90;83.50
33803;DHT22;20110;53.120;5.786;2023-04-25T10:18:31;9.00;82.70
33803;DHT22;20110;53.120;5.786;2023-04-25T10:21:01;8.70;77.30
33803;DHT22;20110;53.120;5.786;2023-04-25T10:23:30;8.70;72.90
33803;DHT22;20110;53.120;5.786;2023-04-25T10:25:57;9.30;73.00
33803;DHT22;20110;53.120;5.786;2023-04-25T10:28:24;9.60;75.80
33803;DHT22;20110;53.120;5.786;2023-04-25T10:31:01;9.90;74.00
33803;DHT22;20110;53.120;5.786;2023-04-25T10:33:37;10.30;74.10
33803;DHT22;20110;53.120;5.786;2023-04-25T10:36:34;10.60;70.70
33803;DHT22;20110;53.120;5.786;2023-04-25T10:39:04;10.30;69.00
33803;DHT22;20110;53.120;5.786;2023-04-25T10:41:48;10.40;70.40
33803;DHT22;20110;53.120;5.786;2023-04-25T10:44:18;10.50;69.50
33803;DHT22;20110;53.120;5.786;2023-04-25T10:46:44;10.50;69.90
33803;DHT22;20110;53.120;5.786;2023-04-25T10:49:32;9.60;79.20
33803;DHT22;20110;53.120;5.786;2023-04-25T10:52:18;7.90;90.30
33803;DHT22;20110;53.120;5.786;2023-04-25T10:54:51;6.70;93.80
33803;DHT22;20110;53.120;5.786;2023-04-25T11:00:08;6.20;99.90
33803;DHT22;20110;53.120;5.786;2023-04-25T11:02:40;6.90;99.90
33803;DHT22;20110;53.120;5.786;2023-04-25T11:05:09;7.90;99.90
33803;DHT22;20110;53.120;5.786;2023-04-25T11:07:51;8.40;91.00
33803;DHT22;20110;53.120;5.786;2023-04-25T11:10:25;8.90;85.20
33803;DHT22;20110;53.120;5.786;2023-04-25T11:12:52;9.10;79.50
33803;DHT22;20110;53.120;5.786;2023-04-25T11:15:18;9.00;76.20
33803;DHT22;20110;53.120;5.786;2023-04-25T11:17:45;9.20;78.30
33803;DHT22;20110;53.120;5.786;2023-04-25T11:20:12;9.40;76.60
33803;DHT22;20110;53.120;5.786;2023-04-25T11:22:41;9.40;74.70
33803;DHT22;20110;53.120;5.786;2023-04-25T11:25:10;9.20;73.30
33803;DHT22;20110;53.120;5.786;2023-04-25T11:27:55;9.20;74.80
33803;DHT22;20110;53.120;5.786;2023-04-25T11:30:23;9.80;77.60
33803;DHT22;20110;53.120;5.786;2023-04-25T11:32:50;10.30;75.30
33803;DHT22;20110;53.120;5.786;2023-04-25T11:35:19;11.50;76.30
33803;DHT22;20110;53.120;5.786;2023-04-25T11:37:46;11.60;71.30
33803;DHT22;20110;53.120;5.786;2023-04-25T11:40:13;10.50;72.20
33803;DHT22;20110;53.120;5.786;2023-04-25T11:42:42;10.60;71.60
33803;DHT22;20110;53.120;5.786;2023-04-25T11:45:09;10.20;71.50
33803;DHT22;20110;53.120;5.786;2023-04-25T11:47:37;9.50;71.30
33803;DHT22;20110;53.120;5.786;2023-04-25T11:50:04;9.60;74.20
33803;DHT22;20110;53.120;5.786;2023-04-25T11:52:40;9.70;71.10
33803;DHT22;20110;53.120;5.786;2023-04-25T11:55:15;9.80;69.50
33803;DHT22;20110;53.120;5.786;2023-04-25T11:57:44;10.50;73.00
33803;DHT22;20110;53.120;5.786;2023-04-25T12:00:14;10.60;68.60
33803;DHT22;20110;53.120;5.786;2023-04-25T12:02:54;10.70;66.50
33803;DHT22;20110;53.120;5.786;2023-04-25T12:05:29;10.90;65.60
33803;DHT22;20110;53.120;5.786;2023-04-25T12:08:09;11.40;65.90
33803;DHT22;20110;53.120;5.786;2023-04-25T12:10:39;11.50;61.10
33803;DHT22;20110;53.120;5.786;2023-04-25T12:13:23;12.10;65.40
33803;DHT22;20110;53.120;5.786;2023-04-25T12:15:55;11.60;59.40
33803;DHT22;20110;53.120;5.786;2023-04-25T12:18:24;11.50;58.80
33803;DHT22;20110;53.120;5.786;2023-04-25T12:20:54;11.80;60.10
33803;DHT22;20110;53.120;5.786;2023-04-25T12:23:27;12.20;62.50
33803;DHT22;20110;53.120;5.786;2023-04-25T12:25:55;12.80;60.50
33803;DHT22;20110;53.120;5.786;2023-04-25T12:28:23;12.40;58.40
33803;DHT22;20110;53.120;5.786;2023-04-25T12:31:06;11.20;59.00
33803;DHT22;20110;53.120;5.786;2023-04-25T12:33:33;10.80;56.10
33803;DHT22;20110;53.120;5.786;2023-04-25T12:36:02;11.10;57.60
33803;DHT22;20110;53.120;5.786;2023-04-25T12:38:41;10.70;57.70
33803;DHT22;20110;53.120;5.786;2023-04-25T12:41:08;10.80;57.10
33803;DHT22;20110;53.120;5.786;2023-04-25T12:43:34;10.70;60.90
33803;DHT22;20110;53.120;5.786;2023-04-25T12:46:01;10.80;60.40
33803;DHT22;20110;53.120;5.786;2023-04-25T12:48:26;10.40;62.00
33803;DHT22;20110;53.120;5.786;2023-04-25T12:50:52;9.50;61.50
33803;DHT22;20110;53.120;5.786;2023-04-25T12:53:22;9.70;62.10
33803;DHT22;20110;53.120;5.786;2023-04-25T12:55:51;9.60;58.70
33803;DHT22;20110;53.120;5.786;2023-04-25T12:58:18;9.70;57.80
33803;DHT22;20110;53.120;5.786;2023-04-25T13:00:46;9.80;59.80
33803;DHT22;20110;53.120;5.786;2023-04-25T13:03:12;10.40;58.10
33803;DHT22;20110;53.120;5.786;2023-04-25T13:05:38;10.60;58.60
33803;DHT22;20110;53.120;5.786;2023-04-25T13:08:04;10.90;58.10
33803;DHT22;20110;53.120;5.786;2023-04-25T13:10:30;11.30;60.20
33803;DHT22;20110;53.120;5.786;2023-04-25T13:12:56;11.00;59.60
33803;DHT22;20110;53.120;5.786;2023-04-25T13:15:22;10.50;58.90
33803;DHT22;20110;53.120;5.786;2023-04-25T13:17:48;10.10;59.40
33803;DHT22;20110;53.120;5.786;2023-04-25T13:20:14;9.70;59.10
33803;DHT22;20110;53.120;5.786;2023-04-25T13:22:42;10.00;61.10
33803;DHT22;20110;53.120;5.786;2023-04-25T13:25:08;10.40;64.00
33803;DHT22;20110;53.120;5.786;2023-04-25T13:27:34;10.20;59.10
33803;DHT22;20110;53.120;5.786;2023-04-25T13:30:03;9.50;55.80
33803;DHT22;20110;53.120;5.786;2023-04-25T13:32:36;9.10;58.00
33803;DHT22;20110;53.120;5.786;2023-04-25T13:35:09;9.20;60.00
33803;DHT22;20110;53.120;5.786;2023-04-25T13:37:37;8.90;62.70
33803;DHT22;20110;53.120;5.786;2023-04-25T13:40:05;8.80;63.00
33803;DHT22;20110;53.120;5.786;2023-04-25T13:42:35;8.80;65.40
33803;DHT22;20110;53.120;5.786;2023-04-25T13:45:02;8.80;65.20
33803;DHT22;20110;53.120;5.786;2023-04-25T13:47:29;9.20;69.00
33803;DHT22;20110;53.120;5.786;2023-04-25T13:49:55;9.60;65.50
33803;DHT22;20110;53.120;5.786;2023-04-25T13:52:22;9.60;63.50
33803;DHT22;20110;53.120;5.786;2023-04-25T13:54:49;9.50;63.30
33803;DHT22;20110;53.120;5.786;2023-04-25T13:57:17;9.50;64.70
33803;DHT22;20110;53.120;5.786;2023-04-25T13:59:43;9.70;63.40
33803;DHT22;20110;53.120;5.786;2023-04-25T14:02:08;9.80;67.20
33803;DHT22;20110;53.120;5.786;2023-04-25T14:04:35;10.00;66.80
33803;DHT22;20110;53.120;5.786;2023-04-25T14:07:01;10.30;65.20
33803;DHT22;20110;53.120;5.786;2023-04-25T14:09:29;10.10;66.20
33803;DHT22;20110;53.120;5.786;2023-04-25T14:11:55;9.70;69.30
33803;DHT22;20110;53.120;5.786;2023-04-25T14:14:22;8.40;80.50
33803;DHT22;20110;53.120;5.786;2023-04-25T14:16:49;7.30;92.60
33803;DHT22;20110;53.120;5.786;2023-04-25T14:19:16;6.60;96.50
33803;DHT22;20110;53.120;5.786;2023-04-25T14:21:43;6.40;98.10
33803;DHT22;20110;53.120;5.786;2023-04-25T14:24:09;6.60;98.60
33803;DHT22;20110;53.120;5.786;2023-04-25T14:26:38;6.80;95.50
33803;DHT22;20110;53.120;5.786;2023-04-25T14:29:06;7.50;93.90
33803;DHT22;20110;53.120;5.786;2023-04-25T14:31:34;8.00;89.90
33803;DHT22;20110;53.120;5.786;2023-04-25T14:34:02;8.40;86.50
33803;DHT22;20110;53.120;5.786;2023-04-25T14:36:28;8.30;80.60
33803;DHT22;20110;53.120;5.786;2023-04-25T14:38:54;8.00;84.60
33803;DHT22;20110;53.120;5.786;2023-04-25T14:41:20;7.80;90.80
33803;DHT22;20110;53.120;5.786;2023-04-25T14:43:46;7.20;92.20
33803;DHT22;20110;53.120;5.786;2023-04-25T14:46:12;6.60;97.20
33803;DHT22;20110;53.120;5.786;2023-04-25T14:48:38;6.30;97.80
33803;DHT22;20110;53.120;5.786;2023-04-25T14:51:04;6.10;99.70
33803;DHT22;20110;53.120;5.786;2023-04-25T14:53:31;6.10;98.30
33803;DHT22;20110;53.120;5.786;2023-04-25T14:55:57;6.10;97.00
33803;DHT22;20110;53.120;5.786;2023-04-25T14:58:23;6.20;94.80
33803;DHT22;20110;53.120;5.786;2023-04-25T15:00:49;6.30;97.60
33803;DHT22;20110;53.120;5.786;2023-04-25T15:03:14;6.30;96.80
33803;DHT22;20110;53.120;5.786;2023-04-25T15:05:42;6.60;96.50
33803;DHT22;20110;53.120;5.786;2023-04-25T15:08:08;7.00;99.60
33803;DHT22;20110;53.120;5.786;2023-04-25T15:10:34;7.20;96.60
33803;DHT22;20110;53.120;5.786;2023-04-25T15:13:00;7.50;95.10
33803;DHT22;20110;53.120;5.786;2023-04-25T15:15:26;7.70;97.40
33803;DHT22;20110;53.120;5.786;2023-04-25T15:17:53;8.00;93.30
33803;DHT22;20110;53.120;5.786;2023-04-25T15:20:20;8.20;91.40
33803;DHT22;20110;53.120;5.786;2023-04-25T15:22:47;8.60;92.20
33803;DHT22;20110;53.120;5.786;2023-04-25T15:25:15;8.60;87.20
33803;DHT22;20110;53.120;5.786;2023-04-25T15:27:43;8.40;88.80
33803;DHT22;20110;53.120;5.786;2023-04-25T15:30:12;8.10;84.90
33803;DHT22;20110;53.120;5.786;2023-04-25T15:32:42;8.10;87.10
33803;DHT22;20110;53.120;5.786;2023-04-25T15:35:09;8.40;88.40
33803;DHT22;20110;53.120;5.786;2023-04-25T15:37:36;8.30;88.50
33803;DHT22;20110;53.120;5.786;2023-04-25T15:40:05;8.20;88.80
33803;DHT22;20110;53.120;5.786;2023-04-25T15:42:43;7.90;86.80
33803;DHT22;20110;53.120;5.786;2023-04-25T15:45:13;7.30;90.10
33803;DHT22;20110;53.120;5.786;2023-04-25T15:47:42;7.00;90.90
33803;DHT22;20110;53.120;5.786;2023-04-25T15:50:08;6.90;92.20